Time;durP1;ratioP1;P1;durP2;ratioP2;P2;SDS_P1;SDS_P2;PMS_P1;PMS_P2;Temp;Humidity;BMP_temperature;BMP_pressure;BME280_temperature;BME280_humidity;BME280_pressure;Samples;Min_cycle;Max_cycle;Signal;HPM_P1;HPM_P2
2022/04/12 00:01:34;;;;;;;10.55;8.23;;;10.00;99.90;;;;;;5052809;28;20055;-74
2022/04/12 00:04:01;;;;;;;10.63;7.38;;;10.00;99.90;;;;;;5053048;28;20079;-75
2022/04/12 00:06:27;;;;;;;9.60;7.45;;;10.00;99.90;;;;;;5052615;28;20475;-76
2022/04/12 00:08:53;;;;;;;10.00;7.47;;;10.00;99.90;;;;;;5052020;28;20052;-75
2022/04/12 00:11:18;;;;;;;8.45;7.55;;;10.10;99.90;;;;;;5053254;28;20059;-75
2022/04/12 00:13:44;;;;;;;8.27;7.47;;;10.10;99.90;;;;;;5052664;28;20052;-75
2022/04/12 00:16:10;;;;;;;9.18;7.18;;;10.00;99.90;;;;;;5051766;28;20025;-75
2022/04/12 00:21:19;;;;;;;9.98;7.72;;;10.10;99.90;;;;;;5051564;28;20488;-76
2022/04/12 00:23:46;;;;;;;8.27;7.47;;;10.00;99.90;;;;;;5053004;28;20021;-78
2022/04/12 00:26:12;;;;;;;8.68;7.55;;;10.00;99.90;;;;;;5052012;28;20078;-75
2022/04/12 00:28:38;;;;;;;10.60;7.50;;;10.00;99.90;;;;;;5051890;28;20024;-76
2022/04/12 00:31:04;;;;;;;9.20;7.82;;;10.00;99.90;;;;;;5052492;28;20112;-77
2022/04/12 00:33:30;;;;;;;8.00;7.13;;;10.00;99.90;;;;;;5052122;28;20108;-76
2022/04/12 00:35:58;;;;;;;7.68;6.95;;;10.00;99.90;;;;;;5051717;28;20024;-76
2022/04/12 00:38:24;;;;;;;9.63;7.85;;;10.00;99.90;;;;;;5052341;28;20029;-77
2022/04/12 00:40:51;;;;;;;8.00;7.10;;;9.90;99.90;;;;;;5052705;28;20052;-76
2022/04/12 00:43:18;;;;;;;9.50;7.30;;;9.90;99.90;;;;;;5051282;28;20479;-75
2022/04/12 00:45:47;;;;;;;9.63;7.68;;;9.80;99.90;;;;;;5052214;28;20472;-76
2022/04/12 00:48:13;;;;;;;9.48;7.50;;;9.80;99.90;;;;;;5052152;28;20025;-76
2022/04/12 00:50:40;;;;;;;7.85;7.05;;;9.80;99.90;;;;;;5051388;28;20111;-75
2022/04/12 00:53:08;;;;;;;10.85;6.38;;;9.70;99.90;;;;;;5052516;28;20029;-75
2022/04/12 00:55:34;;;;;;;7.70;6.90;;;9.70;99.90;;;;;;5052146;28;20036;-78
2022/04/12 00:58:06;;;;;;;7.00;6.40;;;9.70;99.90;;;;;;5051416;28;20037;-78
2022/04/12 01:00:31;;;;;;;9.00;6.78;;;9.70;99.90;;;;;;5052100;28;20033;-78
2022/04/12 01:02:57;;;;;;;10.30;7.40;;;9.70;99.90;;;;;;5054337;28;20033;-77
2022/04/12 01:05:23;;;;;;;8.45;6.75;;;9.70;99.90;;;;;;5055144;28;20163;-76
2022/04/12 01:07:48;;;;;;;8.43;6.63;;;9.70;99.90;;;;;;5055787;28;20091;-77
2022/04/12 01:10:15;;;;;;;7.13;6.43;;;9.60;99.90;;;;;;5055715;28;20087;-77
2022/04/12 01:12:41;;;;;;;7.20;6.50;;;9.60;99.90;;;;;;5055230;28;20542;-76
2022/04/12 01:15:18;;;;;;;7.38;6.68;;;9.60;99.90;;;;;;5055785;28;20028;-76
2022/04/12 01:17:45;;;;;;;7.88;6.63;;;9.60;99.90;;;;;;5055292;28;20068;-77
2022/04/12 01:20:12;;;;;;;7.90;6.45;;;9.50;99.90;;;;;;5055704;28;20051;-77
2022/04/12 01:23:29;;;;;;;13.20;6.90;;;9.50;99.90;;;;;;5055964;28;20361;-77
2022/04/12 01:25:55;;;;;;;9.20;6.60;;;9.50;99.90;;;;;;5058588;28;20043;-76
2022/04/12 01:28:20;;;;;;;7.25;6.47;;;9.50;99.90;;;;;;5075576;28;20472;-77
2022/04/12 01:30:46;;;;;;;13.38;6.25;;;9.50;99.90;;;;;;5075748;28;20031;-76
2022/04/12 01:33:11;;;;;;;9.05;6.30;;;9.50;99.90;;;;;;5074659;28;20388;-77
2022/04/12 01:35:37;;;;;;;8.43;6.70;;;9.40;99.90;;;;;;5075504;28;20028;-76
2022/04/12 01:38:03;;;;;;;8.27;6.20;;;9.40;99.90;;;;;;5075582;28;20036;-77
2022/04/12 01:40:28;;;;;;;9.88;6.00;;;9.40;99.90;;;;;;5074552;28;20027;-77
2022/04/12 01:42:54;;;;;;;7.47;6.45;;;9.40;99.90;;;;;;5075407;28;20464;-77
2022/04/12 01:45:21;;;;;;;8.13;5.65;;;9.30;99.90;;;;;;5075206;28;20044;-76
2022/04/12 01:47:47;;;;;;;10.98;7.38;;;9.30;99.90;;;;;;5085600;28;20041;-77
2022/04/12 01:50:12;;;;;;;10.27;6.85;;;9.30;99.90;;;;;;5075336;28;20104;-76
2022/04/12 01:52:38;;;;;;;7.50;6.55;;;9.30;99.90;;;;;;5074998;28;20039;-76
2022/04/12 01:55:04;;;;;;;8.20;6.15;;;9.30;99.90;;;;;;5075085;28;20481;-76
2022/04/12 01:57:30;;;;;;;6.47;5.78;;;9.30;99.90;;;;;;5075018;28;20032;-76
2022/04/12 01:59:57;;;;;;;7.45;5.78;;;9.30;99.90;;;;;;5074471;28;20021;-76
2022/04/12 02:02:23;;;;;;;9.32;5.70;;;9.20;99.90;;;;;;5074670;28;20472;-76
2022/04/12 02:04:52;;;;;;;8.13;5.70;;;9.20;99.90;;;;;;5074901;28;20024;-76
2022/04/12 02:07:17;;;;;;;7.20;5.60;;;9.20;99.90;;;;;;5073987;28;20052;-77
2022/04/12 02:09:43;;;;;;;9.95;6.13;;;9.20;99.90;;;;;;5075372;28;20445;-77
2022/04/12 02:12:10;;;;;;;7.97;5.88;;;9.10;99.90;;;;;;5074777;28;20040;-77
2022/04/12 02:14:36;;;;;;;15.27;6.28;;;9.10;99.90;;;;;;5073614;28;20365;-76
2022/04/12 02:17:01;;;;;;;6.70;5.72;;;9.10;99.90;;;;;;5074871;28;20038;-77
2022/04/12 02:19:27;;;;;;;7.05;6.35;;;9.00;99.90;;;;;;5074749;28;20028;-77
2022/04/12 02:21:52;;;;;;;7.93;5.68;;;9.00;99.90;;;;;;5074410;28;20024;-76
2022/04/12 02:24:18;;;;;;;9.73;6.40;;;8.90;99.90;;;;;;5074550;28;20019;-77
2022/04/12 02:26:44;;;;;;;8.55;5.55;;;8.90;99.90;;;;;;5074678;28;20028;-78
2022/04/12 02:29:13;;;;;;;7.68;5.80;;;8.90;99.90;;;;;;5073841;28;20036;-77
2022/04/12 02:31:39;;;;;;;8.63;5.65;;;8.90;99.90;;;;;;5074518;28;20039;-78
2022/04/12 02:34:05;;;;;;;10.88;6.00;;;8.90;99.90;;;;;;5074687;28;20028;-77
2022/04/12 02:36:30;;;;;;;6.50;5.65;;;8.80;99.90;;;;;;5073453;28;20038;-76
2022/04/12 02:38:56;;;;;;;6.43;5.57;;;8.80;99.90;;;;;;5074282;28;20020;-76
2022/04/12 02:41:21;;;;;;;7.40;5.28;;;8.70;99.90;;;;;;5074007;28;20027;-76
2022/04/12 02:43:47;;;;;;;8.20;5.93;;;8.70;99.90;;;;;;5073778;28;20494;-76
2022/04/12 02:46:12;;;;;;;6.45;5.15;;;8.70;99.90;;;;;;5073931;28;20032;-76
2022/04/12 02:48:38;;;;;;;7.10;5.18;;;8.70;99.90;;;;;;5074510;28;20397;-76
2022/04/12 02:51:03;;;;;;;7.90;5.75;;;8.70;99.90;;;;;;5073704;28;20032;-75
2022/04/12 02:53:29;;;;;;;6.03;5.35;;;8.70;99.90;;;;;;5073900;28;20457;-75
2022/04/12 02:55:54;;;;;;;8.88;5.13;;;8.60;99.90;;;;;;5074254;28;20435;-77
2022/04/12 02:58:20;;;;;;;9.80;6.05;;;8.70;99.90;;;;;;5073159;28;20032;-75
2022/04/12 03:00:45;;;;;;;8.57;5.90;;;8.60;99.90;;;;;;5073934;28;20048;-74
2022/04/12 03:03:13;;;;;;;8.73;5.97;;;8.60;99.90;;;;;;5073416;28;20036;-78
2022/04/12 03:05:39;;;;;;;6.57;5.25;;;8.60;99.90;;;;;;5074473;28;20032;-77
2022/04/12 03:08:05;;;;;;;5.60;5.07;;;8.50;99.90;;;;;;5073881;28;20045;-76
2022/04/12 03:10:30;;;;;;;8.32;5.60;;;8.60;99.90;;;;;;5072827;28;20036;-75
2022/04/12 03:12:56;;;;;;;7.70;6.20;;;8.50;99.90;;;;;;5073919;28;20041;-76
2022/04/12 03:15:21;;;;;;;6.40;5.80;;;8.50;99.90;;;;;;5073179;28;20020;-75
2022/04/12 03:17:47;;;;;;;6.57;5.40;;;8.50;99.90;;;;;;5073329;28;20035;-77
2022/04/12 03:20:12;;;;;;;9.70;5.63;;;8.50;99.90;;;;;;5073715;28;20017;-78
2022/04/12 03:22:41;;;;;;;9.60;5.30;;;8.50;99.90;;;;;;5073614;28;20449;-77
2022/04/12 03:25:10;;;;;;;7.28;5.47;;;8.50;99.90;;;;;;5071714;28;20499;-79
2022/04/12 03:27:36;;;;;;;5.75;5.15;;;8.50;99.90;;;;;;5073336;28;20397;-78
2022/04/12 03:30:02;;;;;;;5.32;4.82;;;8.50;99.90;;;;;;5073290;28;20016;-79
2022/04/12 03:32:27;;;;;;;13.13;5.30;;;8.50;99.90;;;;;;5072655;28;20070;-79
2022/04/12 03:34:53;;;;;;;9.77;5.13;;;8.50;99.90;;;;;;5073554;28;20484;-78
2022/04/12 03:37:18;;;;;;;5.60;5.00;;;8.50;99.90;;;;;;5073378;28;20089;-80
2022/04/12 03:39:45;;;;;;;5.85;4.95;;;8.50;99.90;;;;;;5072782;28;20479;-78
2022/04/12 03:42:11;;;;;;;6.50;5.32;;;8.40;99.90;;;;;;5072858;28;20024;-78
2022/04/12 03:44:37;;;;;;;10.02;5.95;;;8.50;99.90;;;;;;5072983;28;20029;-78
2022/04/12 03:47:03;;;;;;;8.43;5.30;;;8.40;99.90;;;;;;5072338;28;20029;-80
2022/04/12 03:49:28;;;;;;;7.72;5.78;;;8.40;99.90;;;;;;5072938;28;20035;-78
2022/04/12 03:51:54;;;;;;;6.05;4.40;;;8.40;99.90;;;;;;5072827;28;20055;-78
2022/04/12 03:54:19;;;;;;;6.82;5.47;;;8.40;99.90;;;;;;5071861;28;20032;-78
2022/04/12 03:56:45;;;;;;;7.07;5.07;;;8.40;99.90;;;;;;5072794;28;20048;-80
2022/04/12 03:59:10;;;;;;;7.45;5.40;;;8.40;99.90;;;;;;5072429;28;20391;-79
2022/04/12 04:01:37;;;;;;;9.85;5.68;;;8.50;99.90;;;;;;5072282;28;20060;-80
2022/04/12 04:04:02;;;;;;;7.28;5.65;;;8.50;99.90;;;;;;5072972;28;20090;-79
2022/04/12 04:06:28;;;;;;;8.15;5.70;;;8.50;99.90;;;;;;5071919;28;20496;-78
2022/04/12 04:08:54;;;;;;;9.65;5.57;;;8.60;99.90;;;;;;5072659;28;20052;-79
2022/04/12 04:11:19;;;;;;;9.65;5.30;;;8.60;99.90;;;;;;5072285;28;20377;-79
2022/04/12 04:13:46;;;;;;;5.90;5.30;;;8.60;99.90;;;;;;5071939;28;20044;-79
2022/04/12 04:16:11;;;;;;;8.93;5.60;;;8.50;99.90;;;;;;5072516;28;20381;-79
2022/04/12 04:18:37;;;;;;;10.55;5.63;;;8.50;99.90;;;;;;5072635;28;20017;-81
2022/04/12 04:21:03;;;;;;;10.35;5.43;;;8.50;99.90;;;;;;5071795;28;20028;-79
2022/04/12 04:23:29;;;;;;;7.28;5.40;;;8.40;99.90;;;;;;5072184;28;20380;-80
2022/04/12 04:25:55;;;;;;;7.43;5.72;;;8.30;99.90;;;;;;5072521;28;20024;-80
2022/04/12 04:28:23;;;;;;;7.13;5.88;;;8.30;99.90;;;;;;5071436;28;20054;-79
2022/04/12 04:30:50;;;;;;;8.25;6.05;;;8.60;99.90;;;;;;5072301;28;20056;-80
2022/04/12 04:33:19;;;;;;;6.78;5.50;;;8.30;99.90;;;;;;5072179;28;20020;-80
2022/04/12 04:35:46;;;;;;;7.07;5.60;;;8.20;99.90;;;;;;5071614;28;20051;-79
2022/04/12 04:38:12;;;;;;;7.78;6.15;;;8.20;99.90;;;;;;5072079;28;20032;-80
2022/04/12 04:40:38;;;;;;;8.07;5.63;;;8.20;99.90;;;;;;5072161;28;20027;-79
2022/04/12 04:43:04;;;;;;;7.38;5.82;;;8.10;99.90;;;;;;5071557;28;20043;-79
2022/04/12 04:45:29;;;;;;;6.40;5.40;;;8.20;99.90;;;;;;5071683;28;20051;-80
2022/04/12 04:48:00;;;;;;;10.95;5.90;;;8.20;99.90;;;;;;5072100;28;20028;-80
2022/04/12 04:50:32;;;;;;;7.32;5.95;;;8.10;99.90;;;;;;5071520;28;20032;-79
2022/04/12 04:52:59;;;;;;;7.95;6.13;;;8.10;99.90;;;;;;5072185;28;20036;-80
2022/04/12 04:55:25;;;;;;;9.57;5.68;;;8.10;99.90;;;;;;5071568;28;20440;-79
2022/04/12 04:57:55;;;;;;;10.50;6.53;;;8.10;99.90;;;;;;5070956;28;20110;-79
2022/04/12 05:00:22;;;;;;;10.68;6.25;;;8.10;99.90;;;;;;5071634;28;20125;-79
2022/04/12 05:02:52;;;;;;;8.88;5.57;;;8.10;99.90;;;;;;5071587;28;20029;-79
2022/04/12 05:05:18;;;;;;;11.23;6.47;;;8.10;99.90;;;;;;5071938;28;20056;-79
2022/04/12 05:07:51;;;;;;;8.40;6.00;;;8.10;99.90;;;;;;5071665;28;20088;-79
2022/04/12 05:10:19;;;;;;;12.40;6.07;;;8.10;99.90;;;;;;5071182;28;20542;-79
2022/04/12 05:12:45;;;;;;;9.10;7.00;;;8.10;99.90;;;;;;5063594;28;20037;-79
2022/04/12 05:15:14;;;;;;;8.25;5.70;;;8.00;99.90;;;;;;5052529;28;20025;-76
2022/04/12 05:17:39;;;;;;;8.13;6.10;;;8.60;99.90;;;;;;5051714;28;20346;-77
2022/04/12 05:20:09;;;;;;;11.60;6.03;;;8.10;99.90;;;;;;5051528;28;20055;-78
2022/04/12 05:22:35;;;;;;;10.88;6.10;;;8.10;99.90;;;;;;5050328;28;20489;-78
2022/04/12 05:25:00;;;;;;;10.30;6.53;;;8.10;99.90;;;;;;5049773;28;20033;-78
2022/04/12 05:27:30;;;;;;;9.77;6.15;;;8.10;99.90;;;;;;5065733;28;20122;-78
2022/04/12 05:30:01;;;;;;;6.65;5.63;;;8.10;99.90;;;;;;5050677;28;20071;-77
2022/04/12 05:32:27;;;;;;;10.02;6.03;;;8.10;99.90;;;;;;5048939;28;20316;-78
2022/04/12 05:34:52;;;;;;;11.32;6.78;;;8.10;99.90;;;;;;5052241;28;20404;-78
2022/04/12 05:37:18;;;;;;;9.52;6.68;;;8.20;99.90;;;;;;5052934;28;20043;-78
2022/04/12 05:39:44;;;;;;;9.73;6.47;;;8.20;99.90;;;;;;5049949;28;20021;-77
2022/04/12 05:42:10;;;;;;;12.70;5.80;;;8.30;99.90;;;;;;5049793;28;20033;-77
2022/04/12 05:44:35;;;;;;;7.93;6.15;;;8.30;99.90;;;;;;5050164;28;20045;-77
2022/04/12 05:47:03;;;;;;;9.00;6.88;;;8.30;99.90;;;;;;5052650;28;20039;-78
2022/04/12 05:49:29;;;;;;;8.68;6.30;;;8.30;99.90;;;;;;5053036;28;20032;-77
2022/04/12 05:51:55;;;;;;;8.48;6.80;;;8.30;99.90;;;;;;5053344;28;20151;-77
2022/04/12 05:54:25;;;;;;;8.20;6.05;;;8.40;99.90;;;;;;5059214;28;20036;-78
2022/04/12 05:56:50;;;;;;;8.60;7.40;;;8.40;99.90;;;;;;5074062;28;20035;-78
2022/04/12 05:59:19;;;;;;;8.73;6.65;;;8.50;99.90;;;;;;5073051;28;20020;-79
2022/04/12 06:01:45;;;;;;;8.30;6.80;;;8.50;99.90;;;;;;5073685;28;20033;-78
2022/04/12 06:04:10;;;;;;;14.63;6.88;;;8.60;99.90;;;;;;5073397;28;20032;-79
2022/04/12 06:06:36;;;;;;;8.70;7.35;;;8.70;99.90;;;;;;5063912;28;20380;-78
2022/04/12 06:09:03;;;;;;;11.73;7.20;;;8.70;99.90;;;;;;5073427;28;20071;-78
2022/04/12 06:11:29;;;;;;;8.43;7.22;;;8.70;99.90;;;;;;5073427;28;20039;-77
2022/04/12 06:13:55;;;;;;;8.40;6.60;;;8.90;99.90;;;;;;5072853;28;20021;-77
2022/04/12 06:16:20;;;;;;;8.35;7.07;;;8.90;99.90;;;;;;5062687;28;20032;-78
2022/04/12 06:18:46;;;;;;;8.57;6.93;;;9.00;99.90;;;;;;5070856;28;20024;-77
2022/04/12 06:21:12;;;;;;;14.73;7.82;;;9.10;99.90;;;;;;5072825;28;20066;-78
2022/04/12 06:23:37;;;;;;;16.40;7.57;;;9.20;99.90;;;;;;5086722;28;20020;-78
2022/04/12 06:26:03;;;;;;;11.43;7.57;;;9.20;99.90;;;;;;5073354;28;20020;-79
2022/04/12 06:28:30;;;;;;;8.35;7.13;;;9.30;99.90;;;;;;5063070;28;20017;-79
2022/04/12 06:30:59;;;;;;;11.00;8.70;;;9.40;99.90;;;;;;5071985;28;20025;-78
2022/04/12 06:33:26;;;;;;;11.27;7.35;;;9.40;99.90;;;;;;5052764;28;20055;-78
2022/04/12 06:35:52;;;;;;;9.48;6.93;;;9.50;99.90;;;;;;5052492;28;20021;-77
2022/04/12 06:38:18;;;;;;;18.00;7.72;;;9.60;99.90;;;;;;5071780;28;20124;-78
2022/04/12 06:40:45;;;;;;;12.77;8.07;;;9.70;99.90;;;;;;5073055;28;20023;-78
2022/04/12 06:43:11;;;;;;;15.13;8.80;;;9.80;99.90;;;;;;5067475;28;20086;-75
2022/04/12 06:45:38;;;;;;;11.57;7.15;;;9.90;99.90;;;;;;5069481;28;20028;-77
2022/04/12 06:48:04;;;;;;;9.48;8.45;;;10.00;99.90;;;;;;5060115;28;20033;-74
2022/04/12 06:50:29;;;;;;;8.30;7.40;;;10.10;99.90;;;;;;5052547;28;20017;-75
2022/04/12 06:52:56;;;;;;;10.43;7.95;;;10.20;99.90;;;;;;5051729;28;20029;-76
2022/04/12 06:55:22;;;;;;;11.15;8.20;;;10.30;99.90;;;;;;5070418;28;20012;-76
2022/04/12 06:57:48;;;;;;;10.23;8.05;;;10.40;99.90;;;;;;5071254;28;20038;-75
2022/04/12 07:00:14;;;;;;;10.93;8.40;;;10.50;99.90;;;;;;5071104;28;20341;-76
2022/04/12 07:02:40;;;;;;;10.77;8.32;;;10.60;99.90;;;;;;5071778;28;20060;-74
2022/04/12 07:05:07;;;;;;;12.30;9.02;;;10.70;99.90;;;;;;5072569;28;20021;-75
2022/04/12 07:07:36;;;;;;;9.88;8.13;;;10.80;99.90;;;;;;5072086;28;20043;-75
2022/04/12 07:10:03;;;;;;;8.82;7.80;;;10.80;99.90;;;;;;5071588;28;20047;-76
2022/04/12 07:12:29;;;;;;;10.15;7.50;;;11.00;99.90;;;;;;5071610;28;20036;-75
2022/04/12 07:14:54;;;;;;;11.77;7.45;;;11.00;99.90;;;;;;5070418;28;20075;-75
2022/04/12 07:17:20;;;;;;;8.27;7.47;;;11.10;99.90;;;;;;5051544;28;20025;-74
2022/04/12 07:19:46;;;;;;;11.68;8.45;;;11.20;99.90;;;;;;5052884;28;20024;-77
2022/04/12 07:22:14;;;;;;;10.90;9.25;;;11.20;99.90;;;;;;5073278;28;20024;-76
2022/04/12 07:24:40;;;;;;;10.65;8.75;;;11.30;99.90;;;;;;5072605;28;20522;-76
2022/04/12 07:27:05;;;;;;;8.90;7.63;;;11.40;99.90;;;;;;5073153;28;20025;-75
2022/04/12 07:29:31;;;;;;;8.65;7.75;;;11.40;99.90;;;;;;5072792;28;20024;-74
2022/04/12 07:31:57;;;;;;;10.73;8.27;;;11.40;99.90;;;;;;5072604;28;20032;-74
2022/04/12 07:34:22;;;;;;;12.40;8.50;;;11.50;99.90;;;;;;5073192;28;20063;-75
2022/04/12 07:36:53;;;;;;;9.48;7.28;;;11.60;99.90;;;;;;5058052;28;20029;-75
2022/04/12 07:39:22;;;;;;;;;;;11.60;99.90;;;;;;5052490;28;20029;-75
2022/04/12 07:41:48;;;;;;;7.88;7.10;;;11.70;99.90;;;;;;5052647;28;19915;-75
2022/04/12 07:44:15;;;;;;;10.43;8.18;;;11.80;99.90;;;;;;5063084;28;20025;-75
2022/04/12 07:46:41;;;;;;;8.50;7.45;;;11.80;99.90;;;;;;5051206;28;20031;-76
2022/04/12 07:49:07;;;;;;;9.80;7.90;;;11.90;99.90;;;;;;5066289;28;20415;-75
2022/04/12 07:51:33;;;;;;;10.55;8.32;;;12.00;99.90;;;;;;5070774;28;20032;-75
2022/04/12 07:54:01;;;;;;;9.38;7.60;;;12.00;99.90;;;;;;5060965;28;20017;-75
2022/04/12 07:56:27;;;;;;;11.95;8.30;;;12.10;99.90;;;;;;5067337;28;20392;-75
2022/04/12 07:58:52;;;;;;;8.85;7.82;;;12.20;99.90;;;;;;5069516;28;20128;-75
2022/04/12 08:01:18;;;;;;;8.25;7.45;;;12.30;99.90;;;;;;5067094;28;20113;-75
2022/04/12 08:03:43;;;;;;;10.65;7.90;;;12.40;99.90;;;;;;5070459;28;20035;-76
2022/04/12 08:06:09;;;;;;;13.07;7.68;;;12.50;99.90;;;;;;5069784;28;20464;-75
2022/04/12 08:08:35;;;;;;;11.35;8.07;;;12.60;99.90;;;;;;5069942;28;20429;-76
2022/04/12 08:11:01;;;;;;;9.88;8.60;;;12.70;99.90;;;;;;5070274;28;20041;-81
2022/04/12 08:13:26;;;;;;;9.60;8.32;;;12.90;99.90;;;;;;5069340;28;20066;-75
2022/04/12 08:15:52;;;;;;;9.90;7.00;;;13.00;99.90;;;;;;5070256;28;20401;-78
2022/04/12 08:18:17;;;;;;;10.75;7.80;;;13.10;99.90;;;;;;5070214;28;20090;-77
2022/04/12 08:20:43;;;;;;;14.40;8.40;;;13.20;99.90;;;;;;5069951;28;20028;-75
2022/04/12 08:23:08;;;;;;;7.90;7.05;;;13.30;99.90;;;;;;5069094;28;20067;-74
2022/04/12 08:25:35;;;;;;;8.77;7.28;;;13.40;99.90;;;;;;5070431;28;20411;-76
2022/04/12 08:28:00;;;;;;;8.55;7.65;;;13.50;99.90;;;;;;5064802;28;20033;-75
2022/04/12 08:30:26;;;;;;;8.82;7.57;;;13.70;99.90;;;;;;5067889;28;20477;-75
2022/04/12 08:32:52;;;;;;;8.90;7.65;;;13.80;99.90;;;;;;5070168;28;20032;-74
2022/04/12 08:35:17;;;;;;;12.55;6.57;;;13.90;99.90;;;;;;5065281;28;20100;-75
2022/04/12 08:37:44;;;;;;;7.80;6.50;;;14.00;99.90;;;;;;5061818;28;20552;-75
2022/04/12 08:40:10;;;;;;;9.73;6.28;;;14.10;99.90;;;;;;5069695;28;20388;-76
2022/04/12 08:42:36;;;;;;;9.82;6.47;;;14.20;99.90;;;;;;5069584;28;20033;-75
2022/04/12 08:45:03;;;;;;;11.23;6.88;;;14.20;99.90;;;;;;5070063;28;20418;-75
2022/04/12 08:47:31;;;;;;;7.90;6.20;;;14.30;99.90;;;;;;5070085;28;20123;-76
2022/04/12 08:50:00;;;;;;;7.40;5.85;;;14.30;99.90;;;;;;5066158;28;20025;-75
2022/04/12 08:52:26;;;;;;;6.57;5.97;;;14.30;99.90;;;;;;5069168;28;20036;-75
2022/04/12 08:54:53;;;;;;;6.70;6.00;;;14.40;99.90;;;;;;5069552;28;20024;-76
2022/04/12 08:57:18;;;;;;;11.60;6.70;;;14.40;99.90;;;;;;5069616;28;20107;-75
2022/04/12 08:59:44;;;;;;;6.25;5.65;;;14.60;99.90;;;;;;5068339;28;20021;-75
2022/04/12 09:02:10;;;;;;;5.93;5.40;;;14.60;99.90;;;;;;5068975;28;20249;-75
2022/04/12 09:04:36;;;;;;;12.30;5.75;;;14.60;99.90;;;;;;5069880;28;20388;-75
2022/04/12 09:07:06;;;;;;;7.63;5.65;;;14.70;99.50;;;;;;5069592;28;20139;-75
2022/04/12 09:09:32;;;;;;;11.98;6.45;;;14.80;99.50;;;;;;5068789;28;20041;-75
2022/04/12 09:12:02;;;;;;;10.18;6.60;;;14.80;99.90;;;;;;5069919;28;20047;-75
2022/04/12 09:14:52;;;;;;;7.57;5.78;;;14.90;99.40;;;;;;5069953;28;20043;-74
2022/04/12 09:17:30;;;;;;;14.77;6.17;;;15.00;99.00;;;;;;5067054;28;20506;-75
2022/04/12 09:19:55;;;;;;;9.57;5.45;;;15.00;98.90;;;;;;5067119;28;20155;-76
2022/04/12 09:22:23;;;;;;;6.93;5.40;;;15.10;99.00;;;;;;5069028;28;20544;-75
2022/04/12 09:24:51;;;;;;;6.65;5.78;;;15.20;99.00;;;;;;5069462;28;20028;-76
2022/04/12 09:27:21;;;;;;;7.47;5.30;;;15.30;99.30;;;;;;5073917;28;20032;-76
2022/04/12 09:29:48;;;;;;;15.57;6.15;;;15.30;99.30;;;;;;5058945;28;20121;-76
2022/04/12 09:32:15;;;;;;;13.02;6.18;;;15.40;99.30;;;;;;5053375;28;20049;-75
2022/04/12 09:34:42;;;;;;;6.25;5.65;;;15.50;98.80;;;;;;5054696;28;20029;-74
2022/04/12 09:37:24;;;;;;;7.50;6.07;;;15.60;99.00;;;;;;5054378;28;20040;-75
2022/04/12 09:39:56;;;;;;;8.68;5.57;;;15.60;98.60;;;;;;5055340;28;20178;-76
2022/04/12 09:42:44;;;;;;;6.03;5.32;;;15.70;98.90;;;;;;5054545;28;20482;-76
2022/04/12 09:45:30;;;;;;;7.50;5.18;;;15.80;98.60;;;;;;5054535;28;20090;-76
2022/04/12 09:48:04;;;;;;;6.75;5.10;;;15.90;98.70;;;;;;5073076;28;20035;-77
2022/04/12 09:50:32;;;;;;;8.52;5.00;;;15.90;98.60;;;;;;5061491;28;20078;-75
2022/04/12 09:53:03;;;;;;;6.18;5.25;;;16.00;98.20;;;;;;5053717;28;20041;-76
2022/04/12 09:55:36;;;;;;;6.93;5.50;;;16.00;98.30;;;;;;5071781;28;20047;-76
2022/04/12 09:58:04;;;;;;;8.02;5.95;;;16.10;98.00;;;;;;5073575;28;20025;-76
2022/04/12 10:00:30;;;;;;;9.02;5.35;;;16.20;98.10;;;;;;5073999;28;20027;-76
2022/04/12 10:03:05;;;;;;;9.80;5.50;;;16.30;97.70;;;;;;5074026;28;20384;-76
2022/04/12 10:05:32;;;;;;;11.80;5.68;;;16.40;97.20;;;;;;5072735;28;20380;-76
2022/04/12 10:07:58;;;;;;;8.75;4.78;;;16.40;97.30;;;;;;5072235;28;20101;-76
2022/04/12 10:10:25;;;;;;;9.43;5.75;;;16.50;97.80;;;;;;5073464;28;20044;-76
2022/04/12 10:12:56;;;;;;;8.82;5.90;;;16.60;97.80;;;;;;5071058;28;20494;-76
2022/04/12 10:15:23;;;;;;;8.57;5.65;;;16.70;98.00;;;;;;5053700;28;20021;-76
2022/04/12 10:17:49;;;;;;;7.28;5.38;;;16.70;97.90;;;;;;5053964;28;20028;-77
2022/04/12 10:20:18;;;;;;;6.97;6.05;;;16.80;97.40;;;;;;5052626;28;20021;-77
2022/04/12 10:22:50;;;;;;;6.47;5.88;;;16.90;97.40;;;;;;5066559;28;20036;-76
2022/04/12 10:25:18;;;;;;;6.45;5.85;;;17.10;97.40;;;;;;5064814;28;20021;-75
2022/04/12 10:27:46;;;;;;;8.75;6.60;;;17.20;97.60;;;;;;5070637;28;20036;-75
2022/04/12 10:30:15;;;;;;;6.95;5.47;;;17.30;97.10;;;;;;5070804;28;20027;-77
2022/04/12 10:33:04;;;;;;;6.53;5.50;;;17.30;96.80;;;;;;5074732;28;20040;-77
2022/04/12 10:35:43;;;;;;;7.38;6.00;;;17.30;97.30;;;;;;5070905;28;20021;-77
2022/04/12 10:38:13;;;;;;;9.55;5.55;;;17.30;97.00;;;;;;5053312;28;20444;-77
2022/04/12 10:40:43;;;;;;;6.43;5.63;;;17.40;96.70;;;;;;5053378;28;20025;-77
2022/04/12 10:43:12;;;;;;;;;;;17.50;96.60;;;;;;5054071;28;20067;-77
2022/04/12 10:45:48;;;;;;;6.82;5.38;;;17.40;96.40;;;;;;5054065;28;20007;-77
2022/04/12 10:48:24;;;;;;;9.60;6.05;;;17.60;96.30;;;;;;5052951;28;20102;-75
2022/04/12 10:50:53;;;;;;;8.68;5.40;;;17.80;96.10;;;;;;5053661;28;20096;-75
2022/04/12 10:53:37;;;;;;;6.80;5.65;;;17.90;95.80;;;;;;5051690;28;20119;-78
2022/04/12 10:56:14;;;;;;;9.57;5.78;;;18.10;95.70;;;;;;5054726;28;20029;-75
2022/04/12 10:58:40;;;;;;;6.93;6.22;;;18.20;95.70;;;;;;5055378;28;20027;-76
2022/04/12 11:01:10;;;;;;;6.55;5.95;;;18.30;96.20;;;;;;5053319;28;20472;-76
2022/04/12 11:03:43;;;;;;;6.85;6.15;;;18.40;96.00;;;;;;5051513;28;20040;-77
2022/04/12 11:06:20;;;;;;;12.65;6.18;;;18.60;95.80;;;;;;5057426;28;20032;-75
2022/04/12 11:08:49;;;;;;;10.63;6.35;;;18.90;95.50;;;;;;5057197;28;20485;-76
2022/04/12 11:11:19;;;;;;;7.30;6.57;;;19.00;94.90;;;;;;5053274;28;20420;-76
2022/04/12 11:13:45;;;;;;;6.68;5.95;;;18.90;94.40;;;;;;5053541;28;20049;-76
2022/04/12 11:16:12;;;;;;;7.10;6.28;;;18.90;94.00;;;;;;5052482;28;20109;-76
2022/04/12 11:18:50;;;;;;;7.72;5.68;;;18.90;94.10;;;;;;5053403;28;20071;-76
2022/04/12 11:21:17;;;;;;;8.20;6.05;;;18.80;94.20;;;;;;5053098;28;20036;-76
2022/04/12 11:23:55;;;;;;;6.22;5.57;;;18.90;94.30;;;;;;5052717;28;20074;-77
2022/04/12 11:26:50;;;;;;;6.68;5.30;;;18.80;94.40;;;;;;5053305;28;20074;-75
2022/04/12 11:29:22;;;;;;;8.70;6.00;;;18.90;94.80;;;;;;5052787;28;20170;-76
2022/04/12 11:31:56;;;;;;;10.55;5.60;;;19.00;95.00;;;;;;5053334;28;20040;-76
2022/04/12 11:34:23;;;;;;;6.20;5.35;;;19.10;94.50;;;;;;5053030;28;20108;-77
2022/04/12 11:37:05;;;;;;;7.38;5.93;;;19.20;94.50;;;;;;5052370;28;20490;-76
2022/04/12 11:39:32;;;;;;;5.90;5.28;;;19.30;94.50;;;;;;5052526;28;20033;-77
2022/04/12 11:42:06;;;;;;;6.85;5.38;;;19.30;93.60;;;;;;5053174;28;20087;-76
2022/04/12 11:44:32;;;;;;;7.47;5.55;;;19.40;93.20;;;;;;5052050;28;20108;-77
2022/04/12 11:47:03;;;;;;;15.18;4.93;;;19.40;93.50;;;;;;5053663;28;20104;-76
2022/04/12 11:49:29;;;;;;;7.60;5.05;;;19.50;93.70;;;;;;5051133;28;20021;-76
2022/04/12 11:51:59;;;;;;;8.82;4.78;;;20.10;93.80;;;;;;5050779;28;20043;-77
2022/04/12 11:54:29;;;;;;;7.07;4.90;;;19.70;93.50;;;;;;5056821;28;20028;-75
2022/04/12 11:57:19;;;;;;;14.55;5.38;;;19.70;93.20;;;;;;5072582;28;20024;-75
2022/04/12 11:59:44;;;;;;;6.25;5.03;;;19.80;92.60;;;;;;5072126;28;20040;-77
2022/04/12 12:02:11;;;;;;;9.63;5.63;;;19.90;93.00;;;;;;5072076;28;20475;-76
2022/04/12 12:04:47;;;;;;;11.80;5.18;;;19.90;93.00;;;;;;5071393;28;20115;-76
2022/04/12 12:07:14;;;;;;;7.38;5.03;;;19.90;92.40;;;;;;5072159;28;20028;-76
2022/04/12 12:09:57;;;;;;;11.75;4.68;;;19.90;92.10;;;;;;5072507;28;20221;-76
2022/04/12 12:12:46;;;;;;;16.60;5.20;;;19.90;91.80;;;;;;5071322;28;20463;-76
2022/04/12 12:15:17;;;;;;;9.10;4.60;;;20.00;91.90;;;;;;5070287;28;20024;-76
2022/04/12 12:17:45;;;;;;;9.63;4.45;;;20.00;91.90;;;;;;5069720;28;20066;-76
2022/04/12 12:20:11;;;;;;;7.60;4.97;;;20.00;91.40;;;;;;5050269;28;20040;-76
2022/04/12 12:22:38;;;;;;;6.75;4.68;;;20.10;91.70;;;;;;5051081;28;20025;-76
2022/04/12 12:25:05;;;;;;;6.55;4.45;;;20.10;91.50;;;;;;5051105;28;20025;-76
2022/04/12 12:27:37;;;;;;;10.38;5.45;;;20.20;91.40;;;;;;5050728;28;20080;-77
2022/04/12 12:30:14;;;;;;;8.52;4.55;;;20.30;92.10;;;;;;5068523;28;20035;-76
2022/04/12 12:32:42;;;;;;;9.52;5.28;;;20.40;91.70;;;;;;5050549;28;20060;-76
2022/04/12 12:35:13;;;;;;;5.25;4.57;;;20.40;91.30;;;;;;5054181;28;20033;-75
2022/04/12 12:37:40;;;;;;;5.50;4.95;;;20.50;91.10;;;;;;5071183;28;20032;-74
2022/04/12 12:40:21;;;;;;;7.95;4.70;;;20.50;91.30;;;;;;5051593;28;20483;-73
2022/04/12 12:42:48;;;;;;;6.00;5.30;;;20.60;91.20;;;;;;5051925;28;20139;-73
2022/04/12 12:45:21;;;;;;;11.35;5.70;;;20.70;91.20;;;;;;5051524;28;20556;-73
2022/04/12 12:47:49;;;;;;;10.63;4.75;;;20.70;91.10;;;;;;5051302;28;20040;-73
2022/04/12 12:50:17;;;;;;;9.73;4.18;;;20.80;91.20;;;;;;5051422;28;20361;-74
2022/04/12 12:52:43;;;;;;;7.78;4.70;;;20.90;91.50;;;;;;5051863;28;20055;-74
2022/04/12 12:55:15;;;;;;;6.97;4.88;;;21.00;90.40;;;;;;5056434;28;20409;-74
2022/04/12 12:57:46;;;;;;;6.45;4.78;;;21.00;90.30;;;;;;5070781;28;20036;-74